createdAt,value
2023-01-27T00:01:05.922Z,101025.67
2023-01-27T00:03:34.564Z,101022.22
2023-01-27T00:10:38.152Z,101022.05
2023-01-27T00:13:25.311Z,101020.34
2023-01-27T00:15:53.498Z,101017.77
2023-01-27T00:18:21.620Z,101018.82
2023-01-27T00:21:07.954Z,101018.48
2023-01-27T00:23:55.035Z,101014.70
2023-01-27T00:26:23.086Z,101008.52
2023-01-27T00:28:51.084Z,101004.02
2023-01-27T00:31:39.513Z,101001.41
2023-01-27T00:34:11.063Z,101000.69
2023-01-27T00:36:41.458Z,101000.52
2023-01-27T00:39:10.458Z,100999.61
2023-01-27T00:41:39.297Z,100996.00
2023-01-27T00:44:12.769Z,100995.11
2023-01-27T00:46:44.306Z,100995.46
2023-01-27T00:49:13.544Z,100991.86
2023-01-27T00:51:42.281Z,100986.89
2023-01-27T00:54:11.260Z,100981.70
2023-01-27T00:56:41.785Z,100986.00
2023-01-27T00:59:13.746Z,100987.05
2023-01-27T01:01:44.714Z,100985.52
2023-01-27T01:04:13.458Z,100983.25
2023-01-27T01:06:42.564Z,100984.75
2023-01-27T01:09:11.835Z,100988.36
2023-01-27T01:11:41.065Z,100986.98
2023-01-27T01:14:10.717Z,100987.52
2023-01-27T01:16:39.034Z,100981.70
2023-01-27T01:19:08.075Z,100976.67
2023-01-27T01:21:38.377Z,100971.98
2023-01-27T01:28:50.384Z,100956.09
2023-01-27T01:31:19.777Z,100953.88
2023-01-27T01:33:48.184Z,100951.62
2023-01-27T01:36:19.430Z,100949.21
2023-01-27T01:38:48.448Z,100945.41
2023-01-27T01:41:20.600Z,100942.30
2023-01-27T01:43:49.534Z,100938.35
2023-01-27T01:46:18.321Z,100933.02
2023-01-27T01:49:00.800Z,100929.98
2023-01-27T01:51:39.917Z,100928.63
2023-01-27T01:54:17.001Z,100924.14
2023-01-27T01:56:52.591Z,100918.36
2023-01-27T01:59:28.643Z,100911.87
2023-01-27T02:01:58.288Z,100908.48
2023-01-27T02:04:28.498Z,100910.26
2023-01-27T02:07:45.029Z,100911.52
2023-01-27T02:10:13.881Z,100918.27
2023-01-27T02:12:42.312Z,100925.48
2023-01-27T02:15:12.407Z,100927.66
2023-01-27T02:17:40.965Z,100921.98
2023-01-27T02:20:16.229Z,100919.27
2023-01-27T02:22:48.297Z,100917.20
2023-01-27T02:25:37.103Z,100906.70
2023-01-27T02:28:08.061Z,100902.87
2023-01-27T02:30:36.237Z,100902.83
2023-01-27T02:33:14.902Z,100897.61
2023-01-27T02:35:54.261Z,100892.91
2023-01-27T02:38:22.339Z,100892.73
2023-01-27T02:40:52.204Z,100893.91
2023-01-27T02:43:20.424Z,100893.90
2023-01-27T02:45:48.514Z,100892.20
2023-01-27T02:48:17.317Z,100895.66
2023-01-27T02:50:48.073Z,100896.38
2023-01-27T02:53:16.605Z,100897.09
2023-01-27T02:55:45.593Z,100895.05
2023-01-27T02:58:16.498Z,100890.81
2023-01-27T03:00:50.350Z,100888.95
2023-01-27T03:03:20.231Z,100888.42
2023-01-27T03:05:51.533Z,100889.77
2023-01-27T03:08:21.767Z,100886.33
2023-01-27T03:10:53.245Z,100887.54
2023-01-27T03:13:26.255Z,100888.91
2023-01-27T03:16:18.734Z,100891.15
2023-01-27T03:18:50.250Z,100895.63
2023-01-27T03:21:22.251Z,100894.79
2023-01-27T03:23:53.624Z,100888.92
2023-01-27T03:26:26.266Z,100881.67
2023-01-27T03:29:17.890Z,100879.21
2023-01-27T03:31:48.389Z,100880.99
2023-01-27T03:34:19.288Z,100886.69
2023-01-27T03:37:20.958Z,100887.21
2023-01-27T03:40:09.611Z,100882.02
2023-01-27T03:42:58.903Z,100878.70
2023-01-27T03:45:48.807Z,100877.26
2023-01-27T03:48:22.325Z,100879.61
2023-01-27T03:50:53.616Z,100882.13
2023-01-27T03:53:23.639Z,100882.60
2023-01-27T03:55:53.944Z,100885.84
2023-01-27T03:58:27.342Z,100885.27
2023-01-27T04:09:30.907Z,100889.35
2023-01-27T04:12:04.552Z,100889.61
2023-01-27T04:14:37.871Z,100889.30
2023-01-27T04:17:10.955Z,100893.98
2023-01-27T04:19:39.058Z,100893.33
2023-01-27T04:22:07.465Z,100897.80
2023-01-27T04:24:38.979Z,100901.23
2023-01-27T04:27:09.159Z,100901.56
2023-01-27T04:29:40.607Z,100903.61
2023-01-27T04:32:12.876Z,100899.30
2023-01-27T04:34:41.122Z,100896.54
2023-01-27T04:37:09.377Z,100895.33
2023-01-27T04:39:41.923Z,100900.34
2023-01-27T04:42:10.349Z,100902.42
2023-01-27T04:44:38.354Z,100903.13
2023-01-27T04:47:06.789Z,100900.55
2023-01-27T04:49:36.073Z,100892.80
2023-01-27T04:52:04.901Z,100886.77
2023-01-27T04:54:32.867Z,100880.09
2023-01-27T04:57:05.748Z,100877.05
2023-01-27T04:59:34.128Z,100873.84
2023-01-27T05:02:04.671Z,100875.41
2023-01-27T05:04:35.395Z,100873.38
2023-01-27T05:07:04.496Z,100873.94
2023-01-27T05:09:32.826Z,100874.14
2023-01-27T05:12:00.767Z,100876.92
2023-01-27T05:14:29.093Z,100879.16
2023-01-27T05:16:57.156Z,100882.79
2023-01-27T05:19:25.763Z,100884.57
2023-01-27T05:21:53.833Z,100885.80
2023-01-27T05:24:22.624Z,100888.90
2023-01-27T05:26:53.579Z,100892.19
2023-01-27T05:29:21.948Z,100891.21
2023-01-27T05:31:50.159Z,100886.55
2023-01-27T05:34:18.759Z,100883.25
2023-01-27T05:36:46.970Z,100883.06
2023-01-27T05:39:16.496Z,100884.59
2023-01-27T05:41:44.685Z,100884.91
2023-01-27T05:44:13.175Z,100885.23
2023-01-27T05:46:41.627Z,100893.29
2023-01-27T05:49:09.725Z,100897.39
2023-01-27T05:51:39.959Z,100897.90
2023-01-27T05:54:08.800Z,100900.48
2023-01-27T05:56:37.084Z,100894.98
2023-01-27T05:59:06.164Z,100895.83
2023-01-27T06:01:35.017Z,100895.81
2023-01-27T06:04:03.436Z,100895.27
2023-01-27T06:06:34.356Z,100898.13
2023-01-27T06:09:02.907Z,100898.27
2023-01-27T06:11:30.969Z,100896.38
2023-01-27T08:13:17.738Z,100838.81
2023-01-27T08:15:46.691Z,100834.90
2023-01-27T08:18:14.715Z,100832.01
2023-01-27T08:20:45.713Z,100833.24
2023-01-27T08:23:14.325Z,100832.40
2023-01-27T08:25:42.410Z,100831.36
2023-01-27T08:28:10.434Z,100832.22
2023-01-27T08:30:39.495Z,100832.73
2023-01-27T08:33:07.595Z,100830.15
2023-01-27T08:35:37.221Z,100829.30
2023-01-27T08:38:05.738Z,100835.16
2023-01-27T08:40:33.936Z,100837.75
2023-01-27T08:43:04.680Z,100839.64
2023-01-27T08:45:33.313Z,100831.36
2023-01-27T08:48:01.532Z,100831.88
2023-01-27T08:50:30.497Z,100830.13
2023-01-27T08:53:01.789Z,100832.18
2023-01-27T08:55:32.860Z,100835.29
2023-01-27T08:58:00.997Z,100834.61
2023-01-27T09:00:29.484Z,100832.30
2023-01-27T09:02:57.485Z,100828.11
2023-01-27T09:05:26.374Z,100828.53
2023-01-27T09:07:54.895Z,100834.29
2023-01-27T09:10:23.224Z,100836.02
2023-01-27T09:12:51.618Z,100833.42
2023-01-27T09:15:19.806Z,100834.72
2023-01-27T09:17:48.579Z,100829.79
2023-01-27T09:20:16.918Z,100828.35
2023-01-27T09:22:45.499Z,100825.52
2023-01-27T09:25:17.418Z,100817.59
2023-01-27T09:27:45.491Z,100812.25
2023-01-27T09:30:14.990Z,100805.84
2023-01-27T09:32:43.252Z,100804.75
2023-01-27T09:35:11.817Z,100800.23
2023-01-27T09:37:47.467Z,100804.96
2023-01-27T09:40:44.076Z,100807.61
2023-01-27T09:43:43.452Z,100812.45
2023-01-27T09:46:14.879Z,100811.48
2023-01-27T09:48:46.126Z,100809.49
2023-01-27T09:51:28.292Z,100800.98
2023-01-27T09:54:06.691Z,100789.61
2023-01-27T09:56:53.609Z,100788.61
2023-01-27T09:59:33.624Z,100780.33
2023-01-27T10:02:08.077Z,100774.83
2023-01-27T10:04:46.754Z,100782.91
2023-01-27T10:07:24.317Z,100788.91
2023-01-27T10:10:17.685Z,100782.27
2023-01-27T10:12:52.921Z,100779.19
2023-01-27T10:15:50.272Z,100780.48
2023-01-27T10:18:24.261Z,100779.80
2023-01-27T10:21:14.084Z,100775.48
2023-01-27T10:24:02.436Z,100776.89
2023-01-27T10:26:49.642Z,100778.98
2023-01-27T10:29:26.454Z,100773.86
2023-01-27T10:32:22.813Z,100771.23
2023-01-27T10:35:20.906Z,100773.39
2023-01-27T10:38:05.013Z,100776.55
2023-01-27T10:40:36.138Z,100773.73
2023-01-27T10:43:25.277Z,100764.86
2023-01-27T10:45:58.664Z,100756.19
2023-01-27T10:48:36.147Z,100754.98
2023-01-27T10:51:23.061Z,100756.65
2023-01-27T10:54:16.287Z,100756.56
2023-01-27T10:56:47.840Z,100750.98
2023-01-27T10:59:38.154Z,100746.14
2023-01-27T11:02:09.774Z,100749.42
2023-01-27T11:04:41.218Z,100746.63
2023-01-27T11:07:19.630Z,100746.05
2023-01-27T11:09:59.312Z,100737.53
2023-01-27T11:12:33.141Z,100735.40
2023-01-27T11:15:02.855Z,100731.77
2023-01-27T11:17:42.806Z,100736.05
2023-01-27T11:20:37.162Z,100729.74
2023-01-27T11:23:26.842Z,100724.46
2023-01-27T11:25:56.978Z,100719.42
2023-01-27T11:28:50.211Z,100719.73
2023-01-27T11:31:37.524Z,100718.30
2023-01-27T11:34:11.059Z,100707.20
2023-01-27T11:36:39.012Z,100704.95
2023-01-27T11:39:08.842Z,100707.42
2023-01-27T11:41:41.800Z,100713.12
2023-01-27T11:44:24.627Z,100709.34
2023-01-27T11:46:53.335Z,100702.61
2023-01-27T11:49:32.170Z,100700.73
2023-01-27T11:52:13.558Z,100696.56
2023-01-27T11:54:56.721Z,100697.08
2023-01-27T11:57:27.506Z,100698.52
2023-01-27T12:00:01.860Z,100700.09
2023-01-27T14:13:22.023Z,100659.08
2023-01-27T14:15:54.172Z,100653.90
2023-01-27T14:18:26.198Z,100657.17
2023-01-27T14:21:41.553Z,100656.48
2023-01-27T14:24:28.936Z,100655.10
2023-01-27T14:27:00.379Z,100658.73
2023-01-27T14:29:33.095Z,100655.65
2023-01-27T14:32:31.177Z,100655.72
2023-01-27T14:35:35.742Z,100656.24
2023-01-27T14:38:20.924Z,100655.41
2023-01-27T14:41:09.693Z,100657.19
2023-01-27T14:43:56.814Z,100658.77
2023-01-27T14:47:03.053Z,100657.40
2023-01-27T14:50:03.717Z,100654.30
2023-01-27T14:52:41.341Z,100650.34
2023-01-27T14:55:33.132Z,100653.63
2023-01-27T14:58:19.774Z,100659.13
2023-01-27T15:01:05.624Z,100659.95
2023-01-27T15:04:04.604Z,100656.95
2023-01-27T15:06:40.095Z,100656.04
2023-01-27T15:09:10.290Z,100657.54
2023-01-27T15:11:50.217Z,100655.44
2023-01-27T15:14:35.625Z,100659.02
2023-01-27T15:17:33.896Z,100656.91
2023-01-27T15:20:38.666Z,100652.01
2023-01-27T15:23:17.890Z,100653.51
2023-01-27T15:25:47.589Z,100653.27
2023-01-27T15:28:15.650Z,100649.63
2023-01-27T15:31:14.243Z,100646.64
2023-01-27T15:33:44.873Z,100645.88
2023-01-27T15:36:27.112Z,100648.25
2023-01-27T15:39:09.319Z,100644.73
2023-01-27T15:41:36.268Z,100644.88
2023-01-27T15:44:25.051Z,100646.73
2023-01-27T15:46:53.100Z,100645.84
2023-01-27T15:49:27.560Z,100647.18
2023-01-27T15:51:56.251Z,100645.94
2023-01-27T15:54:31.396Z,100646.39
2023-01-27T15:56:59.898Z,100641.16
2023-01-27T15:59:29.961Z,100636.11
2023-01-27T16:02:11.494Z,100632.08
2023-01-27T16:04:39.420Z,100630.48
2023-01-27T16:07:06.699Z,100628.20
2023-01-27T16:09:40.175Z,100626.64
2023-01-27T16:12:26.873Z,100629.71
2023-01-27T16:15:34.567Z,100633.67
2023-01-27T16:18:07.540Z,100632.79
2023-01-27T16:20:52.978Z,100628.95
2023-01-27T16:23:41.166Z,100628.04
2023-01-27T16:26:19.956Z,100624.05
2023-01-27T16:28:48.432Z,100617.27
2023-01-27T16:31:20.473Z,100613.45
2023-01-27T16:33:47.797Z,100615.84
2023-01-27T16:36:26.794Z,100616.52
2023-01-27T16:38:54.597Z,100609.08
2023-01-27T16:41:29.313Z,100606.77
2023-01-27T16:44:03.758Z,100608.63
2023-01-27T16:46:42.030Z,100605.86
2023-01-27T16:49:18.158Z,100610.16
2023-01-27T16:51:45.407Z,100611.02
2023-01-27T16:54:21.633Z,100612.75
2023-01-27T16:56:51.731Z,100615.46
2023-01-27T16:59:24.108Z,100619.40
2023-01-27T17:01:51.920Z,100620.79
2023-01-27T17:04:26.214Z,100621.46
2023-01-27T17:06:56.325Z,100625.09
2023-01-27T17:09:25.131Z,100624.70
2023-01-27T17:11:53.487Z,100621.27
2023-01-27T17:14:30.511Z,100621.63
2023-01-27T17:17:00.550Z,100623.84
2023-01-27T17:19:29.481Z,100625.19
2023-01-27T17:22:00.418Z,100628.63
2023-01-27T17:24:32.386Z,100627.56
2023-01-27T17:27:05.721Z,100627.92
2023-01-27T17:29:40.477Z,100635.19
2023-01-27T17:32:27.452Z,100635.39
2023-01-27T17:34:59.747Z,100629.34
2023-01-27T17:37:29.449Z,100623.31
2023-01-27T17:40:00.975Z,100622.83
2023-01-27T17:42:29.857Z,100621.77
2023-01-27T17:45:23.523Z,100618.98
2023-01-27T17:47:50.321Z,100621.73
2023-01-27T17:50:21.587Z,100625.02
2023-01-27T17:52:52.389Z,100628.77
2023-01-27T17:55:21.383Z,100628.09
2023-01-27T17:57:53.794Z,100629.84
2023-01-27T18:00:25.215Z,100627.27
2023-01-27T18:03:17.307Z,100628.12
2023-01-27T18:05:44.769Z,100630.00
2023-01-27T18:08:11.796Z,100631.33
2023-01-27T20:14:49.818Z,100635.14
2023-01-27T20:17:17.118Z,100626.60
2023-01-27T20:19:43.891Z,100623.39
2023-01-27T20:22:12.307Z,100622.42
2023-01-27T20:24:39.669Z,100617.92
2023-01-27T20:27:06.655Z,100622.26
2023-01-27T20:29:35.002Z,100624.86
2023-01-27T20:32:01.764Z,100627.32
2023-01-27T20:34:28.720Z,100625.95
2023-01-27T20:36:56.448Z,100622.52
2023-01-27T20:39:23.561Z,100624.96
2023-01-27T20:41:50.901Z,100619.14
2023-01-27T20:44:17.863Z,100618.65
2023-01-27T20:46:45.139Z,100622.77
2023-01-27T20:49:11.837Z,100622.38
2023-01-27T20:51:38.828Z,100622.38
2023-01-27T20:54:05.877Z,100622.73
2023-01-27T20:56:32.698Z,100627.55
2023-01-27T20:59:01.010Z,100623.88
2023-01-27T21:01:27.935Z,100623.17
2023-01-27T21:03:54.807Z,100625.73
2023-01-27T21:06:22.837Z,100626.38
2023-01-27T21:08:49.783Z,100624.27
2023-01-27T21:11:18.191Z,100623.73
2023-01-27T21:13:45.707Z,100623.42
2023-01-27T21:16:12.736Z,100620.35
2023-01-27T21:18:40.428Z,100619.70
2023-01-27T21:21:07.396Z,100614.69
2023-01-27T21:23:34.808Z,100610.73
2023-01-27T21:26:08.565Z,100607.45
2023-01-27T21:28:36.048Z,100610.76
2023-01-27T21:31:07.323Z,100607.66
2023-01-27T21:33:38.478Z,100606.46
2023-01-27T21:36:10.557Z,100609.08
2023-01-27T21:38:38.294Z,100605.11
2023-01-27T21:41:37.279Z,100601.65
2023-01-27T21:44:23.289Z,100595.22
2023-01-27T21:46:50.404Z,100585.54
2023-01-27T21:49:17.360Z,100577.60
2023-01-27T21:51:44.309Z,100573.11
2023-01-27T21:54:11.404Z,100569.46
2023-01-27T21:56:38.187Z,100567.01
2023-01-27T21:59:04.807Z,100561.98
2023-01-27T22:01:33.614Z,100560.25
2023-01-27T22:04:00.680Z,100556.27
2023-01-27T22:06:30.816Z,100551.60
2023-01-27T22:08:57.657Z,100548.84
2023-01-27T22:11:24.542Z,100546.95
2023-01-27T22:13:52.165Z,100545.39
2023-01-27T22:16:19.662Z,100543.83
2023-01-27T22:18:46.584Z,100542.60
2023-01-27T22:21:13.185Z,100534.13
2023-01-27T22:23:40.007Z,100532.39
2023-01-27T22:26:08.628Z,100532.42
2023-01-27T22:28:35.378Z,100531.20
2023-01-27T22:31:02.147Z,100529.14
2023-01-27T22:33:31.809Z,100521.73
2023-01-27T22:36:00.185Z,100519.16
2023-01-27T22:38:26.826Z,100518.11
2023-01-27T22:40:57.399Z,100517.41
2023-01-27T22:43:24.086Z,100517.04
2023-01-27T22:45:51.560Z,100522.21
2023-01-27T22:48:18.624Z,100524.29
2023-01-27T22:50:45.258Z,100525.96
2023-01-27T22:53:12.311Z,100526.42
2023-01-27T22:55:39.061Z,100526.03
2023-01-27T22:58:05.833Z,100524.27
2023-01-27T23:00:32.417Z,100527.18
2023-01-27T23:03:00.379Z,100524.41
2023-01-27T23:05:27.157Z,100517.18
2023-01-27T23:07:53.728Z,100509.60
2023-01-27T23:10:21.038Z,100508.23
2023-01-27T23:12:50.051Z,100509.67
2023-01-27T23:15:17.019Z,100511.81
2023-01-27T23:17:44.076Z,100507.67
2023-01-27T23:20:11.483Z,100507.64
2023-01-27T23:22:38.970Z,100507.95
2023-01-27T23:25:06.198Z,100508.18
2023-01-27T23:27:33.548Z,100509.05
2023-01-27T23:30:00.719Z,100510.98
2023-01-27T23:32:27.544Z,100506.70
2023-01-27T23:34:54.156Z,100504.33
2023-01-27T23:37:21.158Z,100505.77
2023-01-27T23:39:53.721Z,100505.78
2023-01-27T23:42:21.797Z,100507.34
2023-01-27T23:44:49.654Z,100503.77
2023-01-27T23:47:17.382Z,100498.63
2023-01-27T23:49:45.775Z,100498.48
2023-01-27T23:52:12.649Z,100496.25
2023-01-27T23:54:39.274Z,100500.81
2023-01-27T23:57:07.522Z,100500.36
2023-01-27T23:59:34.941Z,100500.94
